sensor_id;sensor_type;location;lat;lon;timestamp;temperature;humidity
10802;DHT22;5453;50.852;7.102;2024-03-02T00:00:37;9.00;99.90
10802;DHT22;5453;50.852;7.102;2024-03-02T00:03:11;9.00;99.90
10802;DHT22;5453;50.852;7.102;2024-03-02T00:05:50;9.00;99.90
10802;DHT22;5453;50.852;7.102;2024-03-02T00:08:24;9.00;99.90
10802;DHT22;5453;50.852;7.102;2024-03-02T00:10:58;9.00;99.90
10802;DHT22;5453;50.852;7.102;2024-03-02T00:13:31;9.10;99.90
10802;DHT22;5453;50.852;7.102;2024-03-02T00:16:09;9.10;99.90
10802;DHT22;5453;50.852;7.102;2024-03-02T00:18:42;9.10;99.90
10802;DHT22;5453;50.852;7.102;2024-03-02T00:21:16;9.00;99.90
10802;DHT22;5453;50.852;7.102;2024-03-02T00:23:51;9.10;99.90
10802;DHT22;5453;50.852;7.102;2024-03-02T00:26:23;9.10;99.90
10802;DHT22;5453;50.852;7.102;2024-03-02T00:28:56;9.10;99.90
10802;DHT22;5453;50.852;7.102;2024-03-02T00:31:29;9.10;99.90
10802;DHT22;5453;50.852;7.102;2024-03-02T00:34:06;9.10;99.90
10802;DHT22;5453;50.852;7.102;2024-03-02T00:36:39;9.20;99.90
10802;DHT22;5453;50.852;7.102;2024-03-02T00:39:12;9.10;99.90
10802;DHT22;5453;50.852;7.102;2024-03-02T00:41:50;9.10;99.90
10802;DHT22;5453;50.852;7.102;2024-03-02T00:44:25;9.20;99.90
10802;DHT22;5453;50.852;7.102;2024-03-02T00:47:00;9.20;99.90
10802;DHT22;5453;50.852;7.102;2024-03-02T00:49:32;9.20;99.90
10802;DHT22;5453;50.852;7.102;2024-03-02T00:52:07;9.10;99.90
10802;DHT22;5453;50.852;7.102;2024-03-02T00:54:39;9.10;99.90
10802;DHT22;5453;50.852;7.102;2024-03-02T00:57:12;9.20;99.90
10802;DHT22;5453;50.852;7.102;2024-03-02T00:59:47;9.10;99.90
10802;DHT22;5453;50.852;7.102;2024-03-02T01:02:19;9.10;99.90
10802;DHT22;5453;50.852;7.102;2024-03-02T01:04:52;9.10;99.90
10802;DHT22;5453;50.852;7.102;2024-03-02T01:07:26;9.20;99.90
10802;DHT22;5453;50.852;7.102;2024-03-02T01:10:01;9.10;99.90
10802;DHT22;5453;50.852;7.102;2024-03-02T01:12:34;9.10;99.90
10802;DHT22;5453;50.852;7.102;2024-03-02T01:15:07;9.10;99.90
10802;DHT22;5453;50.852;7.102;2024-03-02T01:17:40;9.10;99.90
10802;DHT22;5453;50.852;7.102;2024-03-02T01:20:13;9.10;99.90
10802;DHT22;5453;50.852;7.102;2024-03-02T01:22:47;9.10;99.90
10802;DHT22;5453;50.852;7.102;2024-03-02T01:25:19;9.10;99.90
10802;DHT22;5453;50.852;7.102;2024-03-02T01:27:51;9.10;99.90
10802;DHT22;5453;50.852;7.102;2024-03-02T01:30:24;9.10;99.90
10802;DHT22;5453;50.852;7.102;2024-03-02T01:32:56;9.10;99.90
10802;DHT22;5453;50.852;7.102;2024-03-02T01:35:29;9.10;99.90
10802;DHT22;5453;50.852;7.102;2024-03-02T01:38:04;9.10;99.90
10802;DHT22;5453;50.852;7.102;2024-03-02T01:40:38;9.10;99.90
10802;DHT22;5453;50.852;7.102;2024-03-02T01:43:10;9.10;99.90
10802;DHT22;5453;50.852;7.102;2024-03-02T01:45:43;9.10;99.90
10802;DHT22;5453;50.852;7.102;2024-03-02T01:48:15;9.10;99.90
10802;DHT22;5453;50.852;7.102;2024-03-02T01:50:48;9.10;99.90
10802;DHT22;5453;50.852;7.102;2024-03-02T01:53:21;9.00;99.90
10802;DHT22;5453;50.852;7.102;2024-03-02T01:55:54;9.10;99.90
10802;DHT22;5453;50.852;7.102;2024-03-02T01:58:27;9.00;99.90
10802;DHT22;5453;50.852;7.102;2024-03-02T02:00:59;9.00;99.90
10802;DHT22;5453;50.852;7.102;2024-03-02T02:03:32;9.00;99.90
10802;DHT22;5453;50.852;7.102;2024-03-02T02:06:08;9.00;99.90
10802;DHT22;5453;50.852;7.102;2024-03-02T02:08:42;9.00;99.90
10802;DHT22;5453;50.852;7.102;2024-03-02T02:11:15;9.00;99.90
10802;DHT22;5453;50.852;7.102;2024-03-02T02:13:47;9.00;99.90
10802;DHT22;5453;50.852;7.102;2024-03-02T02:16:20;9.00;99.90
10802;DHT22;5453;50.852;7.102;2024-03-02T02:18:52;9.00;99.90
10802;DHT22;5453;50.852;7.102;2024-03-02T02:21:27;9.00;99.90
10802;DHT22;5453;50.852;7.102;2024-03-02T02:24:00;8.90;99.90
10802;DHT22;5453;50.852;7.102;2024-03-02T02:26:34;8.90;99.90
10802;DHT22;5453;50.852;7.102;2024-03-02T02:29:06;8.90;99.90
10802;DHT22;5453;50.852;7.102;2024-03-02T02:31:39;8.90;99.90
10802;DHT22;5453;50.852;7.102;2024-03-02T02:34:15;8.80;99.90
10802;DHT22;5453;50.852;7.102;2024-03-02T02:36:49;8.80;99.90
10802;DHT22;5453;50.852;7.102;2024-03-02T02:39:22;8.80;99.90
10802;DHT22;5453;50.852;7.102;2024-03-02T02:41:55;8.80;99.90
10802;DHT22;5453;50.852;7.102;2024-03-02T02:44:27;8.70;99.90
10802;DHT22;5453;50.852;7.102;2024-03-02T02:46:59;8.80;99.90
10802;DHT22;5453;50.852;7.102;2024-03-02T02:49:32;8.80;99.90
10802;DHT22;5453;50.852;7.102;2024-03-02T02:52:06;8.70;99.90
10802;DHT22;5453;50.852;7.102;2024-03-02T02:54:38;8.70;99.90
10802;DHT22;5453;50.852;7.102;2024-03-02T02:57:10;8.70;99.90
10802;DHT22;5453;50.852;7.102;2024-03-02T02:59:43;8.70;99.90
10802;DHT22;5453;50.852;7.102;2024-03-02T03:02:15;8.80;99.90
10802;DHT22;5453;50.852;7.102;2024-03-02T03:04:48;8.80;99.90
10802;DHT22;5453;50.852;7.102;2024-03-02T03:07:21;8.70;99.90
10802;DHT22;5453;50.852;7.102;2024-03-02T03:09:54;8.80;99.90
10802;DHT22;5453;50.852;7.102;2024-03-02T03:12:26;8.80;99.90
10802;DHT22;5453;50.852;7.102;2024-03-02T03:14:59;8.80;99.90
10802;DHT22;5453;50.852;7.102;2024-03-02T03:17:31;8.80;99.90
10802;DHT22;5453;50.852;7.102;2024-03-02T03:20:08;8.80;99.90
10802;DHT22;5453;50.852;7.102;2024-03-02T03:22:42;8.80;99.90
10802;DHT22;5453;50.852;7.102;2024-03-02T03:25:15;8.80;99.90
10802;DHT22;5453;50.852;7.102;2024-03-02T03:27:47;8.80;99.90
10802;DHT22;5453;50.852;7.102;2024-03-02T03:30:19;8.80;99.90
10802;DHT22;5453;50.852;7.102;2024-03-02T03:32:52;8.80;99.90
10802;DHT22;5453;50.852;7.102;2024-03-02T03:35:24;8.80;99.90
10802;DHT22;5453;50.852;7.102;2024-03-02T03:37:58;8.80;99.90
10802;DHT22;5453;50.852;7.102;2024-03-02T03:40:31;8.80;99.90
10802;DHT22;5453;50.852;7.102;2024-03-02T03:43:03;8.80;99.90
10802;DHT22;5453;50.852;7.102;2024-03-02T03:45:36;8.80;99.90
10802;DHT22;5453;50.852;7.102;2024-03-02T03:48:08;8.80;99.90
10802;DHT22;5453;50.852;7.102;2024-03-02T03:50:41;8.80;99.90
10802;DHT22;5453;50.852;7.102;2024-03-02T03:53:14;8.80;99.90
10802;DHT22;5453;50.852;7.102;2024-03-02T03:55:47;8.70;99.90
10802;DHT22;5453;50.852;7.102;2024-03-02T03:58:20;8.80;99.90
10802;DHT22;5453;50.852;7.102;2024-03-02T04:00:52;8.80;99.90
10802;DHT22;5453;50.852;7.102;2024-03-02T04:03:24;8.80;99.90
10802;DHT22;5453;50.852;7.102;2024-03-02T04:05:57;8.70;99.90
10802;DHT22;5453;50.852;7.102;2024-03-02T04:08:31;8.80;99.90
10802;DHT22;5453;50.852;7.102;2024-03-02T04:11:03;8.80;99.90
10802;DHT22;5453;50.852;7.102;2024-03-02T04:13:37;8.70;99.90
10802;DHT22;5453;50.852;7.102;2024-03-02T04:16:09;8.80;99.90
10802;DHT22;5453;50.852;7.102;2024-03-02T04:18:43;8.70;99.90
10802;DHT22;5453;50.852;7.102;2024-03-02T04:21:15;8.70;99.90
10802;DHT22;5453;50.852;7.102;2024-03-02T04:23:49;8.70;99.90
10802;DHT22;5453;50.852;7.102;2024-03-02T04:26:21;8.60;99.90
10802;DHT22;5453;50.852;7.102;2024-03-02T04:28:53;8.60;99.90
10802;DHT22;5453;50.852;7.102;2024-03-02T04:31:26;8.60;99.90
10802;DHT22;5453;50.852;7.102;2024-03-02T04:33:58;8.60;99.90
10802;DHT22;5453;50.852;7.102;2024-03-02T04:36:31;8.60;99.90
10802;DHT22;5453;50.852;7.102;2024-03-02T04:39:05;8.50;99.90
10802;DHT22;5453;50.852;7.102;2024-03-02T04:41:40;8.50;99.90
10802;DHT22;5453;50.852;7.102;2024-03-02T04:44:12;8.50;99.90
10802;DHT22;5453;50.852;7.102;2024-03-02T04:46:45;8.50;99.90
10802;DHT22;5453;50.852;7.102;2024-03-02T04:49:17;8.50;99.90
10802;DHT22;5453;50.852;7.102;2024-03-02T04:51:49;8.50;99.90
10802;DHT22;5453;50.852;7.102;2024-03-02T04:54:26;8.50;99.90
10802;DHT22;5453;50.852;7.102;2024-03-02T04:56:59;8.50;99.90
10802;DHT22;5453;50.852;7.102;2024-03-02T04:59:31;8.50;99.90
10802;DHT22;5453;50.852;7.102;2024-03-02T05:02:03;8.50;99.90
10802;DHT22;5453;50.852;7.102;2024-03-02T05:04:36;8.50;99.90
10802;DHT22;5453;50.852;7.102;2024-03-02T05:07:08;8.50;99.90
10802;DHT22;5453;50.852;7.102;2024-03-02T05:09:42;8.50;99.90
10802;DHT22;5453;50.852;7.102;2024-03-02T05:12:14;8.50;99.90
10802;DHT22;5453;50.852;7.102;2024-03-02T05:15:12;8.50;99.90
10802;DHT22;5453;50.852;7.102;2024-03-02T05:17:45;8.40;99.90
10802;DHT22;5453;50.852;7.102;2024-03-02T05:20:20;8.40;99.90
10802;DHT22;5453;50.852;7.102;2024-03-02T05:22:53;8.40;99.90
10802;DHT22;5453;50.852;7.102;2024-03-02T05:25:27;8.40;99.90
10802;DHT22;5453;50.852;7.102;2024-03-02T05:27:59;8.40;99.90
10802;DHT22;5453;50.852;7.102;2024-03-02T05:30:32;8.40;99.90
10802;DHT22;5453;50.852;7.102;2024-03-02T05:33:04;8.40;99.90
10802;DHT22;5453;50.852;7.102;2024-03-02T05:35:37;8.30;99.90
10802;DHT22;5453;50.852;7.102;2024-03-02T05:38:09;8.30;99.90
10802;DHT22;5453;50.852;7.102;2024-03-02T05:40:43;8.30;99.90
10802;DHT22;5453;50.852;7.102;2024-03-02T05:43:15;8.30;99.90
10802;DHT22;5453;50.852;7.102;2024-03-02T05:45:47;8.20;99.90
10802;DHT22;5453;50.852;7.102;2024-03-02T05:48:20;8.20;99.90
10802;DHT22;5453;50.852;7.102;2024-03-02T05:50:52;8.10;99.90
10802;DHT22;5453;50.852;7.102;2024-03-02T05:53:24;8.10;99.90
10802;DHT22;5453;50.852;7.102;2024-03-02T05:55:58;8.10;99.90
10802;DHT22;5453;50.852;7.102;2024-03-02T05:58:31;8.10;99.90
10802;DHT22;5453;50.852;7.102;2024-03-02T06:01:17;8.00;99.90
10802;DHT22;5453;50.852;7.102;2024-03-02T06:03:49;8.00;99.90
10802;DHT22;5453;50.852;7.102;2024-03-02T06:06:22;8.00;99.90
10802;DHT22;5453;50.852;7.102;2024-03-02T06:08:54;8.00;99.90
10802;DHT22;5453;50.852;7.102;2024-03-02T06:11:28;8.00;99.90
10802;DHT22;5453;50.852;7.102;2024-03-02T06:14:01;7.90;99.90
10802;DHT22;5453;50.852;7.102;2024-03-02T06:16:33;7.90;99.90
10802;DHT22;5453;50.852;7.102;2024-03-02T06:19:06;7.90;99.90
10802;DHT22;5453;50.852;7.102;2024-03-02T06:21:38;8.00;99.90
10802;DHT22;5453;50.852;7.102;2024-03-02T06:24:11;7.90;99.90
10802;DHT22;5453;50.852;7.102;2024-03-02T06:26:44;7.90;99.90
10802;DHT22;5453;50.852;7.102;2024-03-02T06:29:17;7.90;99.90
10802;DHT22;5453;50.852;7.102;2024-03-02T06:31:49;8.00;99.90
10802;DHT22;5453;50.852;7.102;2024-03-02T06:34:21;8.00;99.90
10802;DHT22;5453;50.852;7.102;2024-03-02T06:36:54;8.10;99.90
10802;DHT22;5453;50.852;7.102;2024-03-02T06:39:26;8.00;99.90
10802;DHT22;5453;50.852;7.102;2024-03-02T06:42:00;8.10;99.90
10802;DHT22;5453;50.852;7.102;2024-03-02T06:44:32;8.10;99.90
10802;DHT22;5453;50.852;7.102;2024-03-02T06:47:06;8.20;99.90
10802;DHT22;5453;50.852;7.102;2024-03-02T06:49:38;8.30;99.90
10802;DHT22;5453;50.852;7.102;2024-03-02T06:52:11;8.40;99.90
10802;DHT22;5453;50.852;7.102;2024-03-02T06:54:43;8.40;99.90
10802;DHT22;5453;50.852;7.102;2024-03-02T06:57:17;8.40;99.90
10802;DHT22;5453;50.852;7.102;2024-03-02T06:59:51;8.40;99.90
10802;DHT22;5453;50.852;7.102;2024-03-02T07:02:25;8.40;99.90
10802;DHT22;5453;50.852;7.102;2024-03-02T07:04:58;8.40;99.90
10802;DHT22;5453;50.852;7.102;2024-03-02T07:07:30;8.50;99.90
10802;DHT22;5453;50.852;7.102;2024-03-02T07:10:03;8.60;99.90
10802;DHT22;5453;50.852;7.102;2024-03-02T07:12:39;8.90;99.90
10802;DHT22;5453;50.852;7.102;2024-03-02T07:15:12;9.40;99.90
10802;DHT22;5453;50.852;7.102;2024-03-02T07:18:00;10.00;99.90
10802;DHT22;5453;50.852;7.102;2024-03-02T07:20:33;10.80;99.90
10802;DHT22;5453;50.852;7.102;2024-03-02T07:23:05;11.10;99.90
10802;DHT22;5453;50.852;7.102;2024-03-02T07:25:37;11.00;99.90
10802;DHT22;5453;50.852;7.102;2024-03-02T07:28:11;11.00;99.90
10802;DHT22;5453;50.852;7.102;2024-03-02T07:30:45;10.90;99.90
10802;DHT22;5453;50.852;7.102;2024-03-02T07:33:17;10.80;99.90
10802;DHT22;5453;50.852;7.102;2024-03-02T07:35:52;10.80;99.90
10802;DHT22;5453;50.852;7.102;2024-03-02T07:38:26;10.90;99.90
10802;DHT22;5453;50.852;7.102;2024-03-02T07:40:58;11.20;99.90
10802;DHT22;5453;50.852;7.102;2024-03-02T07:43:32;11.40;99.90
10802;DHT22;5453;50.852;7.102;2024-03-02T07:46:05;11.40;99.90
10802;DHT22;5453;50.852;7.102;2024-03-02T07:48:37;11.50;99.90
10802;DHT22;5453;50.852;7.102;2024-03-02T07:51:10;11.40;99.90
10802;DHT22;5453;50.852;7.102;2024-03-02T07:53:44;11.30;99.90
10802;DHT22;5453;50.852;7.102;2024-03-02T07:56:17;11.20;99.90
10802;DHT22;5453;50.852;7.102;2024-03-02T07:58:54;11.10;99.90
10802;DHT22;5453;50.852;7.102;2024-03-02T08:01:28;10.90;99.90
10802;DHT22;5453;50.852;7.102;2024-03-02T08:04:02;10.80;99.90
10802;DHT22;5453;50.852;7.102;2024-03-02T08:06:38;10.80;99.90
10802;DHT22;5453;50.852;7.102;2024-03-02T08:09:10;10.80;99.90
10802;DHT22;5453;50.852;7.102;2024-03-02T08:11:42;10.80;99.90
10802;DHT22;5453;50.852;7.102;2024-03-02T08:14:16;10.90;99.90
10802;DHT22;5453;50.852;7.102;2024-03-02T08:16:48;11.00;99.90
10802;DHT22;5453;50.852;7.102;2024-03-02T08:19:21;11.20;99.90
10802;DHT22;5453;50.852;7.102;2024-03-02T08:21:54;11.50;99.90
10802;DHT22;5453;50.852;7.102;2024-03-02T08:24:26;11.90;99.90
10802;DHT22;5453;50.852;7.102;2024-03-02T08:26:59;12.10;99.90
10802;DHT22;5453;50.852;7.102;2024-03-02T08:29:33;12.40;99.90
10802;DHT22;5453;50.852;7.102;2024-03-02T08:32:06;12.90;99.90
10802;DHT22;5453;50.852;7.102;2024-03-02T08:34:38;13.80;99.90
10802;DHT22;5453;50.852;7.102;2024-03-02T08:37:11;14.40;98.70
10802;DHT22;5453;50.852;7.102;2024-03-02T08:39:44;14.70;96.80
10802;DHT22;5453;50.852;7.102;2024-03-02T08:42:17;15.20;95.30
10802;DHT22;5453;50.852;7.102;2024-03-02T08:44:51;15.70;94.30
10802;DHT22;5453;50.852;7.102;2024-03-02T08:47:23;16.00;92.60
10802;DHT22;5453;50.852;7.102;2024-03-02T08:49:56;16.20;91.60
10802;DHT22;5453;50.852;7.102;2024-03-02T08:52:28;16.30;91.40
10802;DHT22;5453;50.852;7.102;2024-03-02T08:55:00;16.50;91.40
10802;DHT22;5453;50.852;7.102;2024-03-02T08:57:33;16.70;90.90
10802;DHT22;5453;50.852;7.102;2024-03-02T09:00:08;16.90;90.10
10802;DHT22;5453;50.852;7.102;2024-03-02T09:02:41;17.00;88.00
10802;DHT22;5453;50.852;7.102;2024-03-02T09:05:14;17.10;87.90
10802;DHT22;5453;50.852;7.102;2024-03-02T09:07:46;17.10;87.70
10802;DHT22;5453;50.852;7.102;2024-03-02T09:10:19;17.20;87.10
10802;DHT22;5453;50.852;7.102;2024-03-02T09:12:51;17.20;87.10
10802;DHT22;5453;50.852;7.102;2024-03-02T09:15:25;17.10;86.80
10802;DHT22;5453;50.852;7.102;2024-03-02T09:17:57;16.90;86.20
10802;DHT22;5453;50.852;7.102;2024-03-02T09:20:29;16.70;86.00
10802;DHT22;5453;50.852;7.102;2024-03-02T09:23:02;16.60;86.80
10802;DHT22;5453;50.852;7.102;2024-03-02T09:25:35;16.40;86.20
10802;DHT22;5453;50.852;7.102;2024-03-02T09:28:07;16.20;86.20
10802;DHT22;5453;50.852;7.102;2024-03-02T09:30:41;16.00;86.60
10802;DHT22;5453;50.852;7.102;2024-03-02T09:33:14;16.00;87.00
10802;DHT22;5453;50.852;7.102;2024-03-02T09:35:46;15.90;87.90
10802;DHT22;5453;50.852;7.102;2024-03-02T09:38:19;15.80;87.70
10802;DHT22;5453;50.852;7.102;2024-03-02T09:40:52;15.70;87.90
10802;DHT22;5453;50.852;7.102;2024-03-02T09:43:25;15.80;93.60
10802;DHT22;5453;50.852;7.102;2024-03-02T09:45:59;16.00;93.00
10802;DHT22;5453;50.852;7.102;2024-03-02T09:48:32;16.30;91.40
10802;DHT22;5453;50.852;7.102;2024-03-02T09:51:04;16.60;91.20
10802;DHT22;5453;50.852;7.102;2024-03-02T09:53:37;16.70;89.80
10802;DHT22;5453;50.852;7.102;2024-03-02T09:56:09;16.70;89.70
10802;DHT22;5453;50.852;7.102;2024-03-02T09:58:42;16.70;89.30
10802;DHT22;5453;50.852;7.102;2024-03-02T10:01:16;16.80;91.00
10802;DHT22;5453;50.852;7.102;2024-03-02T10:03:49;16.90;87.70
10802;DHT22;5453;50.852;7.102;2024-03-02T10:06:24;16.90;88.10
10802;DHT22;5453;50.852;7.102;2024-03-02T10:08:57;16.80;87.30
10802;DHT22;5453;50.852;7.102;2024-03-02T10:11:30;16.80;87.60
10802;DHT22;5453;50.852;7.102;2024-03-02T10:14:06;16.70;86.10
10802;DHT22;5453;50.852;7.102;2024-03-02T10:16:44;16.70;87.70
10802;DHT22;5453;50.852;7.102;2024-03-02T10:19:21;16.70;87.90
10802;DHT22;5453;50.852;7.102;2024-03-02T10:21:54;16.80;88.10
10802;DHT22;5453;50.852;7.102;2024-03-02T10:24:35;16.90;86.60
10802;DHT22;5453;50.852;7.102;2024-03-02T10:27:16;17.20;84.90
10802;DHT22;5453;50.852;7.102;2024-03-02T10:29:49;17.30;84.00
10802;DHT22;5453;50.852;7.102;2024-03-02T10:32:23;17.40;83.60
10802;DHT22;5453;50.852;7.102;2024-03-02T10:34:58;17.30;82.80
10802;DHT22;5453;50.852;7.102;2024-03-02T10:37:32;17.20;83.60
10802;DHT22;5453;50.852;7.102;2024-03-02T10:40:05;17.10;83.20
10802;DHT22;5453;50.852;7.102;2024-03-02T10:42:39;17.00;84.30
10802;DHT22;5453;50.852;7.102;2024-03-02T10:45:16;17.00;83.30
10802;DHT22;5453;50.852;7.102;2024-03-02T10:47:50;17.00;83.30
10802;DHT22;5453;50.852;7.102;2024-03-02T10:50:24;16.90;82.00
10802;DHT22;5453;50.852;7.102;2024-03-02T10:52:56;16.80;82.30
10802;DHT22;5453;50.852;7.102;2024-03-02T10:55:29;16.70;83.20
10802;DHT22;5453;50.852;7.102;2024-03-02T10:58:04;16.70;83.50
10802;DHT22;5453;50.852;7.102;2024-03-02T11:00:38;16.70;84.30
10802;DHT22;5453;50.852;7.102;2024-03-02T11:03:13;16.70;83.20
10802;DHT22;5453;50.852;7.102;2024-03-02T11:05:47;16.60;83.70
10802;DHT22;5453;50.852;7.102;2024-03-02T11:08:20;16.50;83.80
10802;DHT22;5453;50.852;7.102;2024-03-02T11:10:58;16.50;83.60
10802;DHT22;5453;50.852;7.102;2024-03-02T11:13:49;16.50;83.40
10802;DHT22;5453;50.852;7.102;2024-03-02T11:16:27;16.50;83.50
10802;DHT22;5453;50.852;7.102;2024-03-02T11:19:12;16.50;85.10
10802;DHT22;5453;50.852;7.102;2024-03-02T11:21:45;16.50;85.10
10802;DHT22;5453;50.852;7.102;2024-03-02T11:24:31;16.40;84.20
10802;DHT22;5453;50.852;7.102;2024-03-02T11:27:10;16.30;84.70
10802;DHT22;5453;50.852;7.102;2024-03-02T11:29:44;16.10;85.20
10802;DHT22;5453;50.852;7.102;2024-03-02T11:32:20;16.10;85.60
10802;DHT22;5453;50.852;7.102;2024-03-02T11:34:55;16.10;85.60
10802;DHT22;5453;50.852;7.102;2024-03-02T11:37:28;16.10;86.10
10802;DHT22;5453;50.852;7.102;2024-03-02T11:40:01;16.00;85.70
10802;DHT22;5453;50.852;7.102;2024-03-02T11:42:35;16.00;86.30
10802;DHT22;5453;50.852;7.102;2024-03-02T11:45:10;16.00;86.50
10802;DHT22;5453;50.852;7.102;2024-03-02T11:47:46;15.90;86.00
10802;DHT22;5453;50.852;7.102;2024-03-02T11:50:30;15.80;86.50
10802;DHT22;5453;50.852;7.102;2024-03-02T11:53:09;15.70;88.10
10802;DHT22;5453;50.852;7.102;2024-03-02T11:55:42;15.70;88.00
10802;DHT22;5453;50.852;7.102;2024-03-02T11:58:17;15.60;87.70
10802;DHT22;5453;50.852;7.102;2024-03-02T12:00:51;15.60;88.20
10802;DHT22;5453;50.852;7.102;2024-03-02T12:03:24;15.50;88.00
10802;DHT22;5453;50.852;7.102;2024-03-02T12:05:59;15.40;88.40
10802;DHT22;5453;50.852;7.102;2024-03-02T12:08:32;15.50;89.10
10802;DHT22;5453;50.852;7.102;2024-03-02T12:11:04;15.70;89.80
10802;DHT22;5453;50.852;7.102;2024-03-02T12:13:37;15.90;89.10
10802;DHT22;5453;50.852;7.102;2024-03-02T12:16:09;16.00;88.00
10802;DHT22;5453;50.852;7.102;2024-03-02T12:18:42;16.00;87.90
10802;DHT22;5453;50.852;7.102;2024-03-02T12:21:16;15.90;86.90
10802;DHT22;5453;50.852;7.102;2024-03-02T12:23:48;15.80;86.70
10802;DHT22;5453;50.852;7.102;2024-03-02T12:26:22;15.80;87.50
10802;DHT22;5453;50.852;7.102;2024-03-02T12:28:55;15.70;88.50
10802;DHT22;5453;50.852;7.102;2024-03-02T12:31:27;15.70;88.20
10802;DHT22;5453;50.852;7.102;2024-03-02T12:34:00;15.70;88.20
10802;DHT22;5453;50.852;7.102;2024-03-02T12:36:38;15.70;88.50
10802;DHT22;5453;50.852;7.102;2024-03-02T12:39:12;15.70;88.60
10802;DHT22;5453;50.852;7.102;2024-03-02T12:41:45;15.60;88.30
10802;DHT22;5453;50.852;7.102;2024-03-02T12:44:18;15.60;88.70
10802;DHT22;5453;50.852;7.102;2024-03-02T12:46:51;15.60;88.90
10802;DHT22;5453;50.852;7.102;2024-03-02T12:49:27;15.60;88.70
10802;DHT22;5453;50.852;7.102;2024-03-02T12:52:03;15.50;88.60
10802;DHT22;5453;50.852;7.102;2024-03-02T12:54:36;15.50;89.00
10802;DHT22;5453;50.852;7.102;2024-03-02T12:57:08;15.40;89.20
10802;DHT22;5453;50.852;7.102;2024-03-02T12:59:45;15.50;89.60
10802;DHT22;5453;50.852;7.102;2024-03-02T13:02:18;15.50;89.50
10802;DHT22;5453;50.852;7.102;2024-03-02T13:04:53;15.60;89.40
10802;DHT22;5453;50.852;7.102;2024-03-02T13:07:31;15.60;89.50
10802;DHT22;5453;50.852;7.102;2024-03-02T13:10:04;15.70;89.80
10802;DHT22;5453;50.852;7.102;2024-03-02T13:12:38;15.70;89.00
10802;DHT22;5453;50.852;7.102;2024-03-02T13:15:10;15.70;88.50
10802;DHT22;5453;50.852;7.102;2024-03-02T13:17:44;15.60;89.70
10802;DHT22;5453;50.852;7.102;2024-03-02T13:20:17;15.50;89.40
10802;DHT22;5453;50.852;7.102;2024-03-02T13:22:52;15.40;89.40
10802;DHT22;5453;50.852;7.102;2024-03-02T13:25:27;15.30;89.70
10802;DHT22;5453;50.852;7.102;2024-03-02T13:28:01;15.30;89.90
10802;DHT22;5453;50.852;7.102;2024-03-02T13:30:34;15.20;90.00
10802;DHT22;5453;50.852;7.102;2024-03-02T13:33:06;15.20;90.10
10802;DHT22;5453;50.852;7.102;2024-03-02T13:35:38;15.20;90.20
10802;DHT22;5453;50.852;7.102;2024-03-02T13:38:12;15.20;90.20
10802;DHT22;5453;50.852;7.102;2024-03-02T13:40:46;15.10;90.00
10802;DHT22;5453;50.852;7.102;2024-03-02T13:43:18;15.10;89.90
10802;DHT22;5453;50.852;7.102;2024-03-02T13:45:51;15.10;90.00
10802;DHT22;5453;50.852;7.102;2024-03-02T13:48:24;15.10;90.10
10802;DHT22;5453;50.852;7.102;2024-03-02T13:50:57;15.10;90.00
10802;DHT22;5453;50.852;7.102;2024-03-02T13:53:31;15.20;89.30
10802;DHT22;5453;50.852;7.102;2024-03-02T13:56:04;15.20;89.50
10802;DHT22;5453;50.852;7.102;2024-03-02T13:58:37;15.20;89.00
10802;DHT22;5453;50.852;7.102;2024-03-02T14:01:10;15.20;89.10
10802;DHT22;5453;50.852;7.102;2024-03-02T14:03:42;15.20;89.90
10802;DHT22;5453;50.852;7.102;2024-03-02T14:06:15;15.20;89.90
10802;DHT22;5453;50.852;7.102;2024-03-02T14:08:48;15.20;90.00
10802;DHT22;5453;50.852;7.102;2024-03-02T14:11:21;15.20;90.20
10802;DHT22;5453;50.852;7.102;2024-03-02T14:13:53;15.20;90.30
10802;DHT22;5453;50.852;7.102;2024-03-02T14:16:27;15.20;90.20
10802;DHT22;5453;50.852;7.102;2024-03-02T14:19:00;15.20;90.10
10802;DHT22;5453;50.852;7.102;2024-03-02T14:21:35;15.20;90.10
10802;DHT22;5453;50.852;7.102;2024-03-02T14:24:09;15.20;89.90
10802;DHT22;5453;50.852;7.102;2024-03-02T14:26:42;15.10;89.80
10802;DHT22;5453;50.852;7.102;2024-03-02T14:29:14;15.10;89.90
10802;DHT22;5453;50.852;7.102;2024-03-02T14:31:46;15.00;90.10
10802;DHT22;5453;50.852;7.102;2024-03-02T14:34:19;15.00;90.10
10802;DHT22;5453;50.852;7.102;2024-03-02T14:36:51;14.90;90.10
10802;DHT22;5453;50.852;7.102;2024-03-02T14:39:25;14.90;89.40
10802;DHT22;5453;50.852;7.102;2024-03-02T14:41:58;14.80;89.80
10802;DHT22;5453;50.852;7.102;2024-03-02T14:44:30;14.70;89.70
10802;DHT22;5453;50.852;7.102;2024-03-02T14:47:03;14.70;90.00
10802;DHT22;5453;50.852;7.102;2024-03-02T14:49:39;14.70;90.30
10802;DHT22;5453;50.852;7.102;2024-03-02T14:52:12;14.70;90.20
10802;DHT22;5453;50.852;7.102;2024-03-02T14:54:46;14.70;90.20
10802;DHT22;5453;50.852;7.102;2024-03-02T14:57:18;14.70;90.20
10802;DHT22;5453;50.852;7.102;2024-03-02T14:59:51;14.60;90.10
10802;DHT22;5453;50.852;7.102;2024-03-02T15:02:25;14.60;90.20
10802;DHT22;5453;50.852;7.102;2024-03-02T15:04:59;14.60;90.30
10802;DHT22;5453;50.852;7.102;2024-03-02T15:07:32;14.60;90.00
10802;DHT22;5453;50.852;7.102;2024-03-02T15:10:07;14.60;89.90
10802;DHT22;5453;50.852;7.102;2024-03-02T15:12:39;14.60;89.50
10802;DHT22;5453;50.852;7.102;2024-03-02T15:15:12;14.60;89.60
10802;DHT22;5453;50.852;7.102;2024-03-02T15:17:47;14.60;89.80
10802;DHT22;5453;50.852;7.102;2024-03-02T15:20:20;14.60;89.70
10802;DHT22;5453;50.852;7.102;2024-03-02T15:22:52;14.60;89.70
10802;DHT22;5453;50.852;7.102;2024-03-02T15:25:26;14.60;89.80
10802;DHT22;5453;50.852;7.102;2024-03-02T15:27:59;14.60;89.20
10802;DHT22;5453;50.852;7.102;2024-03-02T15:30:31;14.60;89.50
10802;DHT22;5453;50.852;7.102;2024-03-02T15:33:03;14.60;89.70
10802;DHT22;5453;50.852;7.102;2024-03-02T15:35:39;14.70;89.60
10802;DHT22;5453;50.852;7.102;2024-03-02T15:38:12;14.70;89.60
10802;DHT22;5453;50.852;7.102;2024-03-02T15:40:47;14.80;91.70
10802;DHT22;5453;50.852;7.102;2024-03-02T15:43:19;14.90;89.70
10802;DHT22;5453;50.852;7.102;2024-03-02T15:45:52;14.80;89.30
10802;DHT22;5453;50.852;7.102;2024-03-02T15:48:24;14.80;89.20
10802;DHT22;5453;50.852;7.102;2024-03-02T15:50:57;14.80;89.20
10802;DHT22;5453;50.852;7.102;2024-03-02T15:53:29;14.70;88.80
10802;DHT22;5453;50.852;7.102;2024-03-02T15:56:03;14.70;88.90
10802;DHT22;5453;50.852;7.102;2024-03-02T15:58:36;14.70;89.00
10802;DHT22;5453;50.852;7.102;2024-03-02T16:01:09;14.60;88.90
10802;DHT22;5453;50.852;7.102;2024-03-02T16:03:41;14.60;88.90
10802;DHT22;5453;50.852;7.102;2024-03-02T16:06:13;14.60;89.10
10802;DHT22;5453;50.852;7.102;2024-03-02T16:08:46;14.60;89.30
10802;DHT22;5453;50.852;7.102;2024-03-02T16:11:20;14.60;89.40
10802;DHT22;5453;50.852;7.102;2024-03-02T16:13:52;14.50;89.70
10802;DHT22;5453;50.852;7.102;2024-03-02T16:16:25;14.50;90.00
10802;DHT22;5453;50.852;7.102;2024-03-02T16:18:57;14.50;89.30
10802;DHT22;5453;50.852;7.102;2024-03-02T16:21:29;14.50;89.50
10802;DHT22;5453;50.852;7.102;2024-03-02T16:24:02;14.50;90.10
10802;DHT22;5453;50.852;7.102;2024-03-02T16:26:35;14.50;89.10
10802;DHT22;5453;50.852;7.102;2024-03-02T16:29:09;14.50;89.00
10802;DHT22;5453;50.852;7.102;2024-03-02T16:31:44;14.40;89.40